sensor_id;sensor_type;location;lat;lon;timestamp;P1;durP1;ratioP1;P2;durP2;ratioP2
40339;SDS011;26044;50.864;20.658;2023-04-24T00:01:05;23.92;;;9.88;;
40339;SDS011;26044;50.864;20.658;2023-04-24T00:03:33;26.85;;;10.68;;
40339;SDS011;26044;50.864;20.658;2023-04-24T00:06:01;24.30;;;10.77;;
40339;SDS011;26044;50.864;20.658;2023-04-24T00:08:29;24.20;;;11.20;;
40339;SDS011;26044;50.864;20.658;2023-04-24T00:10:56;24.73;;;10.05;;
40339;SDS011;26044;50.864;20.658;2023-04-24T00:13:23;23.58;;;10.18;;
40339;SDS011;26044;50.864;20.658;2023-04-24T00:15:50;23.40;;;10.52;;
40339;SDS011;26044;50.864;20.658;2023-04-24T00:18:17;24.17;;;10.80;;
40339;SDS011;26044;50.864;20.658;2023-04-24T00:20:43;26.85;;;10.60;;
40339;SDS011;26044;50.864;20.658;2023-04-24T00:23:11;23.08;;;10.00;;
40339;SDS011;26044;50.864;20.658;2023-04-24T00:25:38;23.27;;;9.82;;
40339;SDS011;26044;50.864;20.658;2023-04-24T00:28:05;22.85;;;10.05;;
40339;SDS011;26044;50.864;20.658;2023-04-24T00:30:32;22.58;;;9.55;;
40339;SDS011;26044;50.864;20.658;2023-04-24T00:32:58;24.02;;;9.82;;
40339;SDS011;26044;50.864;20.658;2023-04-24T00:35:25;23.35;;;10.40;;
40339;SDS011;26044;50.864;20.658;2023-04-24T00:37:52;23.50;;;10.10;;
40339;SDS011;26044;50.864;20.658;2023-04-24T00:40:19;31.83;;;11.48;;
40339;SDS011;26044;50.864;20.658;2023-04-24T00:42:46;22.17;;;10.23;;
40339;SDS011;26044;50.864;20.658;2023-04-24T00:45:12;23.38;;;10.77;;
40339;SDS011;26044;50.864;20.658;2023-04-24T00:47:39;22.23;;;10.32;;
40339;SDS011;26044;50.864;20.658;2023-04-24T00:50:08;25.30;;;10.68;;
40339;SDS011;26044;50.864;20.658;2023-04-24T00:52:35;23.45;;;10.43;;
40339;SDS011;26044;50.864;20.658;2023-04-24T00:55:03;24.63;;;10.55;;
40339;SDS011;26044;50.864;20.658;2023-04-24T00:57:30;23.77;;;10.52;;
40339;SDS011;26044;50.864;20.658;2023-04-24T00:59:57;23.40;;;10.63;;
40339;SDS011;26044;50.864;20.658;2023-04-24T01:02:24;25.50;;;10.70;;
40339;SDS011;26044;50.864;20.658;2023-04-24T01:04:52;24.42;;;11.38;;
40339;SDS011;26044;50.864;20.658;2023-04-24T01:07:19;22.42;;;9.73;;
40339;SDS011;26044;50.864;20.658;2023-04-24T01:09:47;23.10;;;10.25;;
40339;SDS011;26044;50.864;20.658;2023-04-24T01:12:17;24.67;;;10.95;;
40339;SDS011;26044;50.864;20.658;2023-04-24T01:14:44;23.65;;;10.63;;
40339;SDS011;26044;50.864;20.658;2023-04-24T01:17:11;23.55;;;10.73;;
40339;SDS011;26044;50.864;20.658;2023-04-24T01:19:38;23.63;;;10.48;;
40339;SDS011;26044;50.864;20.658;2023-04-24T01:22:10;23.10;;;10.27;;
40339;SDS011;26044;50.864;20.658;2023-04-24T01:24:38;24.90;;;9.85;;
40339;SDS011;26044;50.864;20.658;2023-04-24T01:27:04;26.88;;;11.55;;
40339;SDS011;26044;50.864;20.658;2023-04-24T01:29:32;27.58;;;11.50;;
40339;SDS011;26044;50.864;20.658;2023-04-24T01:31:59;23.50;;;9.90;;
40339;SDS011;26044;50.864;20.658;2023-04-24T01:34:26;28.30;;;11.55;;
40339;SDS011;26044;50.864;20.658;2023-04-24T01:36:53;24.98;;;11.15;;
40339;SDS011;26044;50.864;20.658;2023-04-24T01:39:20;23.65;;;10.55;;
40339;SDS011;26044;50.864;20.658;2023-04-24T01:41:49;22.13;;;10.60;;
40339;SDS011;26044;50.864;20.658;2023-04-24T01:44:16;25.50;;;11.20;;
40339;SDS011;26044;50.864;20.658;2023-04-24T01:46:44;24.90;;;10.93;;
40339;SDS011;26044;50.864;20.658;2023-04-24T01:49:10;26.85;;;10.90;;
40339;SDS011;26044;50.864;20.658;2023-04-24T01:51:37;24.05;;;10.77;;
40339;SDS011;26044;50.864;20.658;2023-04-24T01:54:04;26.67;;;11.75;;
40339;SDS011;26044;50.864;20.658;2023-04-24T01:56:33;22.58;;;10.55;;
40339;SDS011;26044;50.864;20.658;2023-04-24T01:59:02;24.35;;;11.13;;
40339;SDS011;26044;50.864;20.658;2023-04-24T02:01:33;24.92;;;10.73;;
40339;SDS011;26044;50.864;20.658;2023-04-24T02:04:10;26.55;;;10.73;;
40339;SDS011;26044;50.864;20.658;2023-04-24T02:06:37;24.65;;;10.70;;
40339;SDS011;26044;50.864;20.658;2023-04-24T02:09:04;24.25;;;11.60;;
40339;SDS011;26044;50.864;20.658;2023-04-24T02:11:31;24.67;;;11.65;;
40339;SDS011;26044;50.864;20.658;2023-04-24T02:13:58;24.45;;;10.77;;
40339;SDS011;26044;50.864;20.658;2023-04-24T02:16:25;25.30;;;12.55;;
40339;SDS011;26044;50.864;20.658;2023-04-24T02:18:52;25.40;;;12.18;;
40339;SDS011;26044;50.864;20.658;2023-04-24T02:21:18;27.55;;;11.68;;
40339;SDS011;26044;50.864;20.658;2023-04-24T02:23:45;27.73;;;12.25;;
40339;SDS011;26044;50.864;20.658;2023-04-24T02:26:12;28.40;;;12.05;;
40339;SDS011;26044;50.864;20.658;2023-04-24T02:28:39;26.75;;;11.23;;
40339;SDS011;26044;50.864;20.658;2023-04-24T02:31:06;25.10;;;12.43;;
40339;SDS011;26044;50.864;20.658;2023-04-24T02:33:33;28.92;;;11.63;;
40339;SDS011;26044;50.864;20.658;2023-04-24T02:35:59;27.42;;;12.15;;
40339;SDS011;26044;50.864;20.658;2023-04-24T02:38:26;24.42;;;11.90;;
40339;SDS011;26044;50.864;20.658;2023-04-24T02:40:53;27.45;;;12.40;;
40339;SDS011;26044;50.864;20.658;2023-04-24T02:43:20;27.65;;;11.95;;
40339;SDS011;26044;50.864;20.658;2023-04-24T02:45:47;27.30;;;12.20;;
40339;SDS011;26044;50.864;20.658;2023-04-24T02:48:14;27.05;;;11.77;;
40339;SDS011;26044;50.864;20.658;2023-04-24T02:50:42;25.55;;;11.73;;
40339;SDS011;26044;50.864;20.658;2023-04-24T02:53:10;25.50;;;12.05;;
40339;SDS011;26044;50.864;20.658;2023-04-24T02:55:36;23.73;;;11.27;;
40339;SDS011;26044;50.864;20.658;2023-04-24T02:58:03;25.25;;;11.32;;
40339;SDS011;26044;50.864;20.658;2023-04-24T03:00:30;23.20;;;11.35;;
40339;SDS011;26044;50.864;20.658;2023-04-24T03:02:56;27.25;;;11.85;;
40339;SDS011;26044;50.864;20.658;2023-04-24T03:05:23;25.50;;;12.32;;
40339;SDS011;26044;50.864;20.658;2023-04-24T03:07:50;26.63;;;12.38;;
40339;SDS011;26044;50.864;20.658;2023-04-24T03:10:18;25.85;;;11.75;;
40339;SDS011;26044;50.864;20.658;2023-04-24T03:12:45;24.52;;;11.38;;
40339;SDS011;26044;50.864;20.658;2023-04-24T03:15:12;25.50;;;11.43;;
40339;SDS011;26044;50.864;20.658;2023-04-24T03:17:39;24.75;;;10.90;;
40339;SDS011;26044;50.864;20.658;2023-04-24T03:20:06;23.30;;;11.23;;
40339;SDS011;26044;50.864;20.658;2023-04-24T03:22:34;22.65;;;10.70;;
40339;SDS011;26044;50.864;20.658;2023-04-24T03:25:01;24.20;;;11.45;;
40339;SDS011;26044;50.864;20.658;2023-04-24T03:27:28;25.45;;;11.45;;
40339;SDS011;26044;50.864;20.658;2023-04-24T03:29:55;29.17;;;11.10;;
40339;SDS011;26044;50.864;20.658;2023-04-24T03:32:22;24.75;;;11.07;;
40339;SDS011;26044;50.864;20.658;2023-04-24T03:34:49;26.90;;;11.73;;
40339;SDS011;26044;50.864;20.658;2023-04-24T03:37:16;24.50;;;10.60;;
40339;SDS011;26044;50.864;20.658;2023-04-24T03:39:43;27.27;;;11.80;;
40339;SDS011;26044;50.864;20.658;2023-04-24T03:42:10;25.15;;;11.40;;
40339;SDS011;26044;50.864;20.658;2023-04-24T03:44:37;28.23;;;11.13;;
40339;SDS011;26044;50.864;20.658;2023-04-24T03:47:04;23.70;;;11.17;;
40339;SDS011;26044;50.864;20.658;2023-04-24T03:49:30;27.50;;;12.00;;
40339;SDS011;26044;50.864;20.658;2023-04-24T03:51:57;27.17;;;11.52;;
40339;SDS011;26044;50.864;20.658;2023-04-24T03:54:24;25.35;;;10.95;;
40339;SDS011;26044;50.864;20.658;2023-04-24T03:56:51;26.20;;;11.60;;
40339;SDS011;26044;50.864;20.658;2023-04-24T03:59:18;29.92;;;12.80;;
40339;SDS011;26044;50.864;20.658;2023-04-24T04:01:44;25.92;;;11.60;;
40339;SDS011;26044;50.864;20.658;2023-04-24T04:04:12;28.20;;;12.40;;
40339;SDS011;26044;50.864;20.658;2023-04-24T04:06:39;30.45;;;13.63;;
40339;SDS011;26044;50.864;20.658;2023-04-24T04:09:07;31.58;;;14.40;;
40339;SDS011;26044;50.864;20.658;2023-04-24T04:11:34;28.60;;;13.10;;
40339;SDS011;26044;50.864;20.658;2023-04-24T04:14:01;29.35;;;13.50;;
40339;SDS011;26044;50.864;20.658;2023-04-24T04:16:28;26.45;;;11.77;;
40339;SDS011;26044;50.864;20.658;2023-04-24T04:18:55;25.13;;;12.00;;
40339;SDS011;26044;50.864;20.658;2023-04-24T04:21:22;27.40;;;11.82;;
40339;SDS011;26044;50.864;20.658;2023-04-24T04:23:49;26.65;;;12.15;;
40339;SDS011;26044;50.864;20.658;2023-04-24T04:26:15;28.45;;;12.55;;
40339;SDS011;26044;50.864;20.658;2023-04-24T04:28:42;30.50;;;11.15;;
40339;SDS011;26044;50.864;20.658;2023-04-24T04:31:10;23.85;;;11.18;;
40339;SDS011;26044;50.864;20.658;2023-04-24T04:33:37;24.45;;;11.27;;
40339;SDS011;26044;50.864;20.658;2023-04-24T04:36:05;26.98;;;12.05;;
40339;SDS011;26044;50.864;20.658;2023-04-24T04:38:32;25.42;;;11.13;;
40339;SDS011;26044;50.864;20.658;2023-04-24T04:40:59;25.83;;;12.00;;
40339;SDS011;26044;50.864;20.658;2023-04-24T04:43:26;23.67;;;11.30;;
40339;SDS011;26044;50.864;20.658;2023-04-24T04:45:53;26.05;;;11.95;;
40339;SDS011;26044;50.864;20.658;2023-04-24T04:48:22;29.65;;;11.30;;
40339;SDS011;26044;50.864;20.658;2023-04-24T04:50:49;25.48;;;11.48;;
40339;SDS011;26044;50.864;20.658;2023-04-24T04:53:15;25.50;;;12.18;;
40339;SDS011;26044;50.864;20.658;2023-04-24T04:55:42;29.70;;;11.38;;
40339;SDS011;26044;50.864;20.658;2023-04-24T04:58:09;25.23;;;11.38;;
40339;SDS011;26044;50.864;20.658;2023-04-24T05:00:36;24.40;;;11.73;;
40339;SDS011;26044;50.864;20.658;2023-04-24T05:03:03;27.63;;;10.77;;
40339;SDS011;26044;50.864;20.658;2023-04-24T05:05:45;26.95;;;12.63;;
40339;SDS011;26044;50.864;20.658;2023-04-24T05:08:12;27.45;;;12.10;;
40339;SDS011;26044;50.864;20.658;2023-04-24T05:10:51;28.20;;;11.23;;
40339;SDS011;26044;50.864;20.658;2023-04-24T05:13:18;28.05;;;12.30;;
40339;SDS011;26044;50.864;20.658;2023-04-24T05:15:57;25.92;;;11.70;;
40339;SDS011;26044;50.864;20.658;2023-04-24T05:18:24;29.77;;;12.93;;
40339;SDS011;26044;50.864;20.658;2023-04-24T05:20:50;29.60;;;12.75;;
40339;SDS011;26044;50.864;20.658;2023-04-24T05:23:17;28.40;;;11.90;;
40339;SDS011;26044;50.864;20.658;2023-04-24T05:25:44;28.10;;;11.95;;
40339;SDS011;26044;50.864;20.658;2023-04-24T05:28:12;26.58;;;12.15;;
40339;SDS011;26044;50.864;20.658;2023-04-24T05:30:39;29.73;;;12.00;;
40339;SDS011;26044;50.864;20.658;2023-04-24T05:33:06;31.13;;;14.02;;
40339;SDS011;26044;50.864;20.658;2023-04-24T05:35:33;26.83;;;11.60;;
40339;SDS011;26044;50.864;20.658;2023-04-24T05:38:08;29.10;;;12.48;;
40339;SDS011;26044;50.864;20.658;2023-04-24T05:40:39;26.70;;;11.18;;
40339;SDS011;26044;50.864;20.658;2023-04-24T05:43:06;27.95;;;10.15;;
40339;SDS011;26044;50.864;20.658;2023-04-24T05:45:33;24.45;;;10.05;;
40339;SDS011;26044;50.864;20.658;2023-04-24T05:48:03;23.42;;;9.52;;
40339;SDS011;26044;50.864;20.658;2023-04-24T05:50:33;22.48;;;8.57;;
40339;SDS011;26044;50.864;20.658;2023-04-24T05:53:03;24.08;;;10.00;;
40339;SDS011;26044;50.864;20.658;2023-04-24T05:55:30;20.75;;;8.88;;
40339;SDS011;26044;50.864;20.658;2023-04-24T05:57:57;21.15;;;9.00;;
40339;SDS011;26044;50.864;20.658;2023-04-24T06:00:26;22.58;;;9.00;;
40339;SDS011;26044;50.864;20.658;2023-04-24T06:02:54;20.08;;;8.10;;
40339;SDS011;26044;50.864;20.658;2023-04-24T06:05:21;21.13;;;8.27;;
40339;SDS011;26044;50.864;20.658;2023-04-24T06:07:48;20.58;;;8.38;;
40339;SDS011;26044;50.864;20.658;2023-04-24T06:10:19;22.30;;;7.07;;
40339;SDS011;26044;50.864;20.658;2023-04-24T06:12:46;20.85;;;7.68;;
40339;SDS011;26044;50.864;20.658;2023-04-24T06:15:15;20.67;;;8.32;;
40339;SDS011;26044;50.864;20.658;2023-04-24T06:17:44;19.70;;;7.50;;
40339;SDS011;26044;50.864;20.658;2023-04-24T06:20:11;21.98;;;7.63;;
40339;SDS011;26044;50.864;20.658;2023-04-24T06:22:45;20.77;;;7.57;;
40339;SDS011;26044;50.864;20.658;2023-04-24T06:25:19;19.67;;;7.57;;
40339;SDS011;26044;50.864;20.658;2023-04-24T06:27:51;17.98;;;6.55;;
40339;SDS011;26044;50.864;20.658;2023-04-24T06:30:20;16.45;;;6.68;;
40339;SDS011;26044;50.864;20.658;2023-04-24T06:32:48;16.10;;;6.50;;
40339;SDS011;26044;50.864;20.658;2023-04-24T06:35:15;17.55;;;6.65;;
40339;SDS011;26044;50.864;20.658;2023-04-24T06:37:45;19.75;;;6.20;;
40339;SDS011;26044;50.864;20.658;2023-04-24T06:40:22;15.45;;;6.20;;
40339;SDS011;26044;50.864;20.658;2023-04-24T06:42:49;20.48;;;7.07;;
40339;SDS011;26044;50.864;20.658;2023-04-24T06:45:19;16.40;;;6.70;;
40339;SDS011;26044;50.864;20.658;2023-04-24T06:47:48;17.55;;;6.60;;
40339;SDS011;26044;50.864;20.658;2023-04-24T06:50:18;21.98;;;8.18;;
40339;SDS011;26044;50.864;20.658;2023-04-24T06:52:50;15.90;;;6.45;;
40339;SDS011;26044;50.864;20.658;2023-04-24T06:55:17;14.68;;;6.10;;
40339;SDS011;26044;50.864;20.658;2023-04-24T06:57:44;16.42;;;6.20;;
40339;SDS011;26044;50.864;20.658;2023-04-24T07:00:12;15.45;;;5.78;;
40339;SDS011;26044;50.864;20.658;2023-04-24T07:02:39;18.48;;;6.03;;
40339;SDS011;26044;50.864;20.658;2023-04-24T07:05:06;14.13;;;5.95;;
40339;SDS011;26044;50.864;20.658;2023-04-24T07:07:34;14.38;;;6.10;;
40339;SDS011;26044;50.864;20.658;2023-04-24T07:10:04;13.30;;;5.68;;
40339;SDS011;26044;50.864;20.658;2023-04-24T07:12:31;18.55;;;6.78;;
40339;SDS011;26044;50.864;20.658;2023-04-24T07:14:59;15.30;;;6.10;;
40339;SDS011;26044;50.864;20.658;2023-04-24T07:17:26;19.30;;;6.75;;
40339;SDS011;26044;50.864;20.658;2023-04-24T07:19:53;17.67;;;6.00;;
40339;SDS011;26044;50.864;20.658;2023-04-24T07:22:20;16.92;;;6.30;;
40339;SDS011;26044;50.864;20.658;2023-04-24T07:24:46;17.60;;;5.95;;
40339;SDS011;26044;50.864;20.658;2023-04-24T07:27:13;17.65;;;5.80;;
40339;SDS011;26044;50.864;20.658;2023-04-24T07:29:41;15.20;;;6.15;;
40339;SDS011;26044;50.864;20.658;2023-04-24T07:32:09;18.35;;;6.43;;
40339;SDS011;26044;50.864;20.658;2023-04-24T07:34:37;13.98;;;5.57;;
40339;SDS011;26044;50.864;20.658;2023-04-24T07:37:13;15.30;;;5.70;;
40339;SDS011;26044;50.864;20.658;2023-04-24T07:39:40;12.75;;;4.97;;
40339;SDS011;26044;50.864;20.658;2023-04-24T07:42:07;15.60;;;5.70;;
40339;SDS011;26044;50.864;20.658;2023-04-24T07:44:34;12.35;;;5.45;;
40339;SDS011;26044;50.864;20.658;2023-04-24T07:47:02;12.80;;;5.25;;
40339;SDS011;26044;50.864;20.658;2023-04-24T07:49:29;14.40;;;5.57;;
40339;SDS011;26044;50.864;20.658;2023-04-24T07:51:55;12.13;;;4.80;;
40339;SDS011;26044;50.864;20.658;2023-04-24T07:54:22;12.23;;;4.70;;
40339;SDS011;26044;50.864;20.658;2023-04-24T07:56:49;13.63;;;4.82;;
40339;SDS011;26044;50.864;20.658;2023-04-24T07:59:16;14.32;;;5.80;;
40339;SDS011;26044;50.864;20.658;2023-04-24T08:01:42;13.73;;;5.97;;
40339;SDS011;26044;50.864;20.658;2023-04-24T08:04:09;12.40;;;4.93;;
40339;SDS011;26044;50.864;20.658;2023-04-24T08:06:39;9.80;;;4.63;;
40339;SDS011;26044;50.864;20.658;2023-04-24T08:09:06;12.55;;;5.57;;
40339;SDS011;26044;50.864;20.658;2023-04-24T08:11:33;13.50;;;4.63;;
40339;SDS011;26044;50.864;20.658;2023-04-24T08:14:00;11.77;;;4.80;;
40339;SDS011;26044;50.864;20.658;2023-04-24T08:16:27;12.25;;;4.57;;
40339;SDS011;26044;50.864;20.658;2023-04-24T08:18:54;12.15;;;4.93;;
40339;SDS011;26044;50.864;20.658;2023-04-24T08:21:20;12.60;;;4.70;;
40339;SDS011;26044;50.864;20.658;2023-04-24T08:23:47;9.75;;;4.18;;
40339;SDS011;26044;50.864;20.658;2023-04-24T08:26:14;19.65;;;7.05;;
40339;SDS011;26044;50.864;20.658;2023-04-24T08:28:41;13.48;;;5.15;;
40339;SDS011;26044;50.864;20.658;2023-04-24T08:31:08;16.00;;;5.28;;
40339;SDS011;26044;50.864;20.658;2023-04-24T08:33:35;13.77;;;4.68;;
40339;SDS011;26044;50.864;20.658;2023-04-24T08:36:03;14.35;;;5.28;;
40339;SDS011;26044;50.864;20.658;2023-04-24T08:38:30;14.93;;;4.93;;
40339;SDS011;26044;50.864;20.658;2023-04-24T08:40:58;16.27;;;6.10;;
40339;SDS011;26044;50.864;20.658;2023-04-24T08:43:26;12.88;;;5.32;;
40339;SDS011;26044;50.864;20.658;2023-04-24T08:45:55;12.18;;;4.45;;
40339;SDS011;26044;50.864;20.658;2023-04-24T08:48:23;10.02;;;4.32;;
40339;SDS011;26044;50.864;20.658;2023-04-24T08:50:57;8.00;;;4.13;;
40339;SDS011;26044;50.864;20.658;2023-04-24T08:53:24;9.32;;;3.88;;
40339;SDS011;26044;50.864;20.658;2023-04-24T08:55:52;9.48;;;3.92;;
40339;SDS011;26044;50.864;20.658;2023-04-24T08:58:21;9.65;;;4.53;;
40339;SDS011;26044;50.864;20.658;2023-04-24T09:00:51;10.30;;;3.92;;
40339;SDS011;26044;50.864;20.658;2023-04-24T09:03:20;15.98;;;5.30;;
40339;SDS011;26044;50.864;20.658;2023-04-24T09:05:48;9.65;;;3.80;;
40339;SDS011;26044;50.864;20.658;2023-04-24T09:08:17;11.13;;;3.97;;
40339;SDS011;26044;50.864;20.658;2023-04-24T09:10:45;10.65;;;4.43;;
40339;SDS011;26044;50.864;20.658;2023-04-24T09:13:16;13.40;;;5.05;;
40339;SDS011;26044;50.864;20.658;2023-04-24T09:15:44;17.10;;;5.30;;
40339;SDS011;26044;50.864;20.658;2023-04-24T09:18:11;10.93;;;4.03;;
40339;SDS011;26044;50.864;20.658;2023-04-24T09:23:25;12.38;;;4.82;;
40339;SDS011;26044;50.864;20.658;2023-04-24T09:25:57;15.48;;;4.80;;
40339;SDS011;26044;50.864;20.658;2023-04-24T09:28:25;10.20;;;3.60;;
40339;SDS011;26044;50.864;20.658;2023-04-24T09:31:06;13.80;;;4.85;;
40339;SDS011;26044;50.864;20.658;2023-04-24T09:33:35;11.90;;;3.40;;
40339;SDS011;26044;50.864;20.658;2023-04-24T09:36:02;6.90;;;3.28;;
40339;SDS011;26044;50.864;20.658;2023-04-24T09:38:30;8.82;;;3.58;;
40339;SDS011;26044;50.864;20.658;2023-04-24T09:41:06;13.85;;;5.22;;
40339;SDS011;26044;50.864;20.658;2023-04-24T09:43:34;10.63;;;3.75;;
40339;SDS011;26044;50.864;20.658;2023-04-24T09:46:05;10.60;;;4.15;;
40339;SDS011;26044;50.864;20.658;2023-04-24T09:48:35;11.40;;;3.75;;
40339;SDS011;26044;50.864;20.658;2023-04-24T09:51:04;6.30;;;3.38;;
40339;SDS011;26044;50.864;20.658;2023-04-24T09:53:37;7.15;;;3.70;;
40339;SDS011;26044;50.864;20.658;2023-04-24T09:56:09;7.28;;;3.53;;
40339;SDS011;26044;50.864;20.658;2023-04-24T09:58:36;8.40;;;3.90;;
40339;SDS011;26044;50.864;20.658;2023-04-24T10:01:03;16.20;;;4.18;;
40339;SDS011;26044;50.864;20.658;2023-04-24T10:03:31;10.57;;;3.58;;
40339;SDS011;26044;50.864;20.658;2023-04-24T10:05:59;10.32;;;3.10;;
40339;SDS011;26044;50.864;20.658;2023-04-24T10:08:35;8.23;;;3.60;;
40339;SDS011;26044;50.864;20.658;2023-04-24T10:11:03;8.23;;;3.40;;
40339;SDS011;26044;50.864;20.658;2023-04-24T10:13:30;15.13;;;3.45;;
40339;SDS011;26044;50.864;20.658;2023-04-24T10:15:58;8.73;;;3.88;;
40339;SDS011;26044;50.864;20.658;2023-04-24T10:18:27;10.25;;;3.70;;
40339;SDS011;26044;50.864;20.658;2023-04-24T10:20:54;10.27;;;3.92;;
40339;SDS011;26044;50.864;20.658;2023-04-24T10:23:22;10.85;;;3.97;;
40339;SDS011;26044;50.864;20.658;2023-04-24T10:25:51;8.93;;;3.60;;
40339;SDS011;26044;50.864;20.658;2023-04-24T10:28:20;8.13;;;3.50;;
40339;SDS011;26044;50.864;20.658;2023-04-24T10:30:47;17.08;;;4.15;;
40339;SDS011;26044;50.864;20.658;2023-04-24T10:33:16;8.82;;;3.35;;
40339;SDS011;26044;50.864;20.658;2023-04-24T10:35:44;7.80;;;3.35;;
40339;SDS011;26044;50.864;20.658;2023-04-24T10:38:17;16.10;;;4.05;;
40339;SDS011;26044;50.864;20.658;2023-04-24T10:40:50;8.40;;;3.03;;
40339;SDS011;26044;50.864;20.658;2023-04-24T10:43:17;10.27;;;3.80;;
40339;SDS011;26044;50.864;20.658;2023-04-24T10:46:01;11.13;;;3.78;;
40339;SDS011;26044;50.864;20.658;2023-04-24T10:48:29;8.60;;;3.53;;
40339;SDS011;26044;50.864;20.658;2023-04-24T10:50:56;11.23;;;3.70;;
40339;SDS011;26044;50.864;20.658;2023-04-24T10:53:23;9.90;;;3.28;;
40339;SDS011;26044;50.864;20.658;2023-04-24T10:55:57;9.27;;;3.33;;
40339;SDS011;26044;50.864;20.658;2023-04-24T10:58:51;11.63;;;3.80;;
40339;SDS011;26044;50.864;20.658;2023-04-24T11:01:23;12.75;;;3.65;;
40339;SDS011;26044;50.864;20.658;2023-04-24T11:03:55;9.45;;;3.35;;
40339;SDS011;26044;50.864;20.658;2023-04-24T11:06:29;7.18;;;3.28;;
40339;SDS011;26044;50.864;20.658;2023-04-24T11:09:01;8.93;;;3.55;;
40339;SDS011;26044;50.864;20.658;2023-04-24T11:11:34;7.45;;;3.50;;
40339;SDS011;26044;50.864;20.658;2023-04-24T11:14:04;7.32;;;3.80;;
40339;SDS011;26044;50.864;20.658;2023-04-24T11:29:38;14.38;;;3.75;;
40339;SDS011;26044;50.864;20.658;2023-04-24T11:32:51;10.60;;;3.70;;
40339;SDS011;26044;50.864;20.658;2023-04-24T11:34:59;7.78;;;3.58;;
40339;SDS011;26044;50.864;20.658;2023-04-24T11:37:41;11.38;;;3.65;;
40339;SDS011;26044;50.864;20.658;2023-04-24T11:40:10;7.72;;;3.40;;
40339;SDS011;26044;50.864;20.658;2023-04-24T11:42:39;7.57;;;3.23;;
40339;SDS011;26044;50.864;20.658;2023-04-24T11:45:11;8.70;;;3.65;;
40339;SDS011;26044;50.864;20.658;2023-04-24T11:47:44;9.15;;;3.83;;
40339;SDS011;26044;50.864;20.658;2023-04-24T11:50:12;4.80;;;3.17;;
40339;SDS011;26044;50.864;20.658;2023-04-24T11:52:42;11.48;;;4.13;;
40339;SDS011;26044;50.864;20.658;2023-04-24T11:57:43;17.45;;;5.00;;
40339;SDS011;26044;50.864;20.658;2023-04-24T12:00:17;17.48;;;6.38;;
40339;SDS011;26044;50.864;20.658;2023-04-24T12:02:49;11.85;;;3.92;;
40339;SDS011;26044;50.864;20.658;2023-04-24T12:05:23;13.40;;;4.45;;
40339;SDS011;26044;50.864;20.658;2023-04-24T12:07:57;9.20;;;4.25;;
40339;SDS011;26044;50.864;20.658;2023-04-24T12:10:25;9.63;;;4.35;;
40339;SDS011;26044;50.864;20.658;2023-04-24T12:12:55;10.02;;;4.00;;
40339;SDS011;26044;50.864;20.658;2023-04-24T12:15:25;12.02;;;4.03;;
40339;SDS011;26044;50.864;20.658;2023-04-24T12:17:52;6.43;;;3.35;;
40339;SDS011;26044;50.864;20.658;2023-04-24T12:20:28;9.77;;;4.07;;
40339;SDS011;26044;50.864;20.658;2023-04-24T12:22:57;11.43;;;4.28;;
40339;SDS011;26044;50.864;20.658;2023-04-24T12:25:28;8.77;;;3.55;;
40339;SDS011;26044;50.864;20.658;2023-04-24T12:30:30;13.32;;;3.85;;
40339;SDS011;26044;50.864;20.658;2023-04-24T12:33:01;13.57;;;5.13;;
40339;SDS011;26044;50.864;20.658;2023-04-24T12:35:30;11.95;;;4.43;;
40339;SDS011;26044;50.864;20.658;2023-04-24T12:38:06;12.05;;;4.32;;
40339;SDS011;26044;50.864;20.658;2023-04-24T12:40:42;10.95;;;4.15;;
40339;SDS011;26044;50.864;20.658;2023-04-24T12:43:17;12.15;;;3.95;;
40339;SDS011;26044;50.864;20.658;2023-04-24T12:45:45;14.10;;;3.80;;
40339;SDS011;26044;50.864;20.658;2023-04-24T12:48:15;10.45;;;3.78;;
40339;SDS011;26044;50.864;20.658;2023-04-24T12:50:43;8.85;;;3.15;;
40339;SDS011;26044;50.864;20.658;2023-04-24T12:53:12;8.23;;;3.42;;
40339;SDS011;26044;50.864;20.658;2023-04-24T12:55:39;12.10;;;3.70;;
40339;SDS011;26044;50.864;20.658;2023-04-24T12:58:06;8.60;;;3.28;;
40339;SDS011;26044;50.864;20.658;2023-04-24T13:00:35;10.13;;;3.38;;
40339;SDS011;26044;50.864;20.658;2023-04-24T13:03:02;8.57;;;4.00;;
40339;SDS011;26044;50.864;20.658;2023-04-24T13:05:30;10.32;;;3.75;;
40339;SDS011;26044;50.864;20.658;2023-04-24T13:07:57;11.50;;;3.88;;
40339;SDS011;26044;50.864;20.658;2023-04-24T13:10:24;10.10;;;4.07;;
40339;SDS011;26044;50.864;20.658;2023-04-24T13:12:51;8.05;;;3.40;;
40339;SDS011;26044;50.864;20.658;2023-04-24T13:15:18;9.85;;;3.75;;
40339;SDS011;26044;50.864;20.658;2023-04-24T13:17:44;15.63;;;4.18;;
40339;SDS011;26044;50.864;20.658;2023-04-24T13:20:11;9.88;;;4.30;;
40339;SDS011;26044;50.864;20.658;2023-04-24T13:22:40;16.60;;;4.60;;
40339;SDS011;26044;50.864;20.658;2023-04-24T13:25:07;9.25;;;4.68;;
40339;SDS011;26044;50.864;20.658;2023-04-24T13:27:35;9.50;;;3.72;;
40339;SDS011;26044;50.864;20.658;2023-04-24T13:30:03;14.07;;;4.00;;
40339;SDS011;26044;50.864;20.658;2023-04-24T13:32:30;9.70;;;3.50;;
40339;SDS011;26044;50.864;20.658;2023-04-24T13:34:58;9.02;;;3.33;;
40339;SDS011;26044;50.864;20.658;2023-04-24T13:37:24;11.00;;;3.38;;
40339;SDS011;26044;50.864;20.658;2023-04-24T13:39:51;9.57;;;3.70;;
40339;SDS011;26044;50.864;20.658;2023-04-24T13:42:18;16.73;;;3.78;;
40339;SDS011;26044;50.864;20.658;2023-04-24T13:44:46;9.20;;;3.40;;
40339;SDS011;26044;50.864;20.658;2023-04-24T13:47:14;11.45;;;3.75;;
40339;SDS011;26044;50.864;20.658;2023-04-24T13:49:41;9.75;;;3.65;;
40339;SDS011;26044;50.864;20.658;2023-04-24T13:52:08;7.90;;;3.33;;
40339;SDS011;26044;50.864;20.658;2023-04-24T13:54:37;8.63;;;3.58;;
40339;SDS011;26044;50.864;20.658;2023-04-24T13:57:06;8.50;;;3.13;;
40339;SDS011;26044;50.864;20.658;2023-04-24T13:59:32;7.57;;;3.83;;
40339;SDS011;26044;50.864;20.658;2023-04-24T14:01:59;8.25;;;3.85;;
40339;SDS011;26044;50.864;20.658;2023-04-24T14:04:26;8.00;;;3.88;;
40339;SDS011;26044;50.864;20.658;2023-04-24T14:06:53;11.88;;;3.97;;
40339;SDS011;26044;50.864;20.658;2023-04-24T14:09:20;12.05;;;3.65;;
40339;SDS011;26044;50.864;20.658;2023-04-24T14:11:48;11.95;;;3.75;;
40339;SDS011;26044;50.864;20.658;2023-04-24T14:14:15;8.30;;;3.88;;
40339;SDS011;26044;50.864;20.658;2023-04-24T14:16:42;9.13;;;4.40;;
40339;SDS011;26044;50.864;20.658;2023-04-24T14:19:08;8.55;;;4.00;;
40339;SDS011;26044;50.864;20.658;2023-04-24T14:21:35;10.38;;;4.40;;
40339;SDS011;26044;50.864;20.658;2023-04-24T14:24:02;12.50;;;4.50;;
40339;SDS011;26044;50.864;20.658;2023-04-24T14:26:29;5.57;;;3.55;;
40339;SDS011;26044;50.864;20.658;2023-04-24T14:28:55;9.68;;;3.88;;
40339;SDS011;26044;50.864;20.658;2023-04-24T14:31:41;9.18;;;3.95;;
40339;SDS011;26044;50.864;20.658;2023-04-24T14:34:08;10.75;;;3.97;;
40339;SDS011;26044;50.864;20.658;2023-04-24T14:36:35;11.98;;;4.50;;
40339;SDS011;26044;50.864;20.658;2023-04-24T14:39:02;8.88;;;3.97;;
40339;SDS011;26044;50.864;20.658;2023-04-24T14:41:33;12.23;;;4.22;;
40339;SDS011;26044;50.864;20.658;2023-04-24T14:44:02;14.23;;;4.25;;
40339;SDS011;26044;50.864;20.658;2023-04-24T14:46:29;11.57;;;4.10;;